Thunderstorms From: 25-05-2018 15:00 Until: 26-05-2018 15:00 warning for: Thunderstorms Level: Yellow info button

Although rather usual in this region, locally or potentially dangerous phenomena are expected. (such as local winds, summer thunderstorms, rising streams or high waves) Be aware and pay attention to the latest weather updates, especially if you carry out activities exposed to weather or close to a stream or shoreline. 


Meteo18 Weather Cam more information Meteo18 Weather Cam


warning for Thunderstorms more information blitzortung!


Rain radar more information rain snow radar


Visit our other weather sites:

Template documentation
and downloads

And another site



Weather Underground History page Text

Daily Summary for October 17, 2016 Units:  Metric    English   Both
« Previous Day
Next Day »
Daily Weekly Monthly Yearly Custom
  High: Low: Average:
Temperature: -17.8 °C -12.2 °C -10.8 °C
Dew Point: -17.8 °C -12.7 °C -11.4 °C
Humidity: Humidity % 83 % 93 %
Wind Speed: 0 km/h 0 km/h 1.9 km/h
Wind Gust: 0 km/h - -
Wind:- - SW
Pressure: 0 hPa 34520.3 hPa -
Precipitation: 251.46 mm    
Historical Graphs
 
 
Tabular Data for October 17, 2016
Time Temperature Dew Point Pressure Wind Wind Speed Wind Gust Humidity Rainfall Rate (Hourly)
-17.8 °C -17.8 °C 0 hPa Calm     Humidity % 0 mm
00:02 -11.1 °C -11.8 °C 34520.3 hPa Calm     92 % 0 mm
00:07 -11.1 °C -11.8 °C 34520.3 hPa Calm     92 % 0 mm
00:12 -11.1 °C -11.8 °C 34520.3 hPa Calm     92 % 0 mm
00:17 -11.1 °C -11.8 °C 34520.3 hPa Calm     92 % 0 mm
00:22 -11.1 °C -11.8 °C 34520.3 hPa Calm     92 % 0 mm
00:32 -11.2 °C -11.8 °C 34520.3 hPa Calm     93 % 0 mm
00:42 -11.2 °C -11.8 °C 34520.3 hPa Calm     93 % 0 mm
00:52 -11.2 °C -11.8 °C 34533.8 hPa Calm     93 % 0 mm
00:57 -11.2 °C -11.8 °C 34533.8 hPa Calm     93 % 0 mm
01:02 -11.2 °C -11.8 °C 34533.8 hPa Calm     93 % 0 mm
01:07 -11.2 °C -11.8 °C 34533.8 hPa Calm     93 % 0 mm
01:12 -11.2 °C -11.8 °C 34533.8 hPa Calm     93 % 0 mm
01:17 -11.2 °C -11.8 °C 34533.8 hPa Calm     93 % 0 mm
01:22 -11.2 °C -11.7 °C 34533.8 hPa Calm     94 % 0 mm
01:32 -11.2 °C -11.7 °C 34533.8 hPa Calm     94 % 0 mm
01:42 -11.2 °C -11.8 °C 34544 hPa Calm     93 % 0 mm
01:47 -11.2 °C -11.8 °C 34544 hPa Calm     93 % 0 mm
01:52 -11.2 °C -11.8 °C 34544 hPa Calm     93 % 0 mm
01:57 -11.2 °C -11.8 °C 34533.8 hPa Calm   2.6 km/h 93 % 0 mm
02:02 -11.2 °C -11.8 °C 34544 hPa Calm   2.6 km/h 93 % 0 mm
02:07 -11.2 °C -11.7 °C 34544 hPa Calm   2.6 km/h 94 % 0 mm
02:12 -11.2 °C -11.7 °C 34544 hPa Calm     94 % 0 mm
02:17 -11.2 °C -11.7 °C 34544 hPa Calm     94 % 0 mm
02:22 -11.2 °C -11.7 °C 34544 hPa Calm     94 % 0 mm
02:27 -11.2 °C -11.7 °C 34544 hPa Calm     94 % 0 mm
02:32 -11.3 °C -11.8 °C 34544 hPa Calm     94 % 0 mm
02:42 -11.3 °C -11.8 °C 34544 hPa Calm     94 % 0 mm
02:47 -11.4 °C -11.9 °C 34544 hPa Calm   2.6 km/h 94 % 0 mm
02:52 -11.5 °C -12 °C 34544 hPa Calm   2.6 km/h 94 % 0 mm
02:57 -11.5 °C -12 °C 34554.1 hPa Calm   2.6 km/h 94 % 0 mm
03:02 -11.5 °C -12 °C 34544 hPa Calm     94 % 0 mm
03:12 -11.5 °C -11.9 °C 34544 hPa Calm     95 % 0 mm
03:17 -11.4 °C -11.9 °C 34544 hPa Calm     95 % 0 mm
03:22 -11.4 °C -11.9 °C 34544 hPa Calm     95 % 0 mm
03:32 -11.5 °C -11.9 °C 34544 hPa Calm     95 % 0 mm
03:37 -11.6 °C -12 °C 34544 hPa Calm     95 % 0 mm
03:42 -11.5 °C -11.9 °C 34544 hPa Calm     95 % 0 mm
03:47 -11.5 °C -11.9 °C 34544 hPa Calm     95 % 0 mm
03:52 -11.5 °C -11.9 °C 34544 hPa Calm     95 % 0 mm
03:57 -11.5 °C -11.9 °C 34544 hPa Calm     95 % 0 mm
04:02 -11.5 °C -11.9 °C 34544 hPa Calm     95 % 0 mm
04:07 -11.5 °C -11.9 °C 34544 hPa Calm     95 % 0 mm
04:12 -11.6 °C -12 °C 34554.1 hPa Calm     95 % 0 mm
04:17 -11.6 °C -12 °C 34554.1 hPa Calm     95 % 0 mm
04:22 -11.6 °C -12 °C 34554.1 hPa Calm     95 % 0 mm
04:27 -11.6 °C -12.1 °C 34544 hPa Calm     95 % 0 mm
04:32 -11.6 °C -12 °C 34544 hPa Calm     95 % 0 mm
04:37 -11.7 °C -12.1 °C 34554.1 hPa Calm     95 % 0 mm
04:42 -11.7 °C -12.1 °C 34554.1 hPa Calm     95 % 0 mm
04:47 -11.7 °C -12.1 °C 34554.1 hPa Calm     95 % 0 mm
04:52 -11.6 °C -12.1 °C 34554.1 hPa Calm     95 % 0 mm
05:02 -11.7 °C -12.1 °C 34544 hPa Calm     95 % 0 mm
05:12 -11.6 °C -12.1 °C 34544 hPa Calm   2.6 km/h 95 % 0 mm
05:17 -11.8 °C -12.2 °C 34544 hPa Calm   2.6 km/h 95 % 0 mm
05:22 -11.7 °C -12.1 °C 34554.1 hPa Calm     96 % 0 mm
05:32 -11.8 °C -12.2 °C 34554.1 hPa Calm     95 % 0 mm
05:42 -11.8 °C -12.3 °C 34554.1 hPa Calm     95 % 0 mm
05:52 -11.7 °C -12.1 °C 34554.1 hPa Calm     96 % 0 mm
06:02 -11.6 °C -11.9 °C 34554.1 hPa Calm     96 % 0 mm
06:12 -11.6 °C -11.9 °C 34544 hPa Calm     96 % 0 mm
06:17 -11.7 °C -12.1 °C 34544 hPa Calm     95 % 0 mm
06:22 -11.8 °C -12.2 °C 34544 hPa North 5.1 km/h   95 % 0 mm
06:32 -11.8 °C -12.2 °C 34554.1 hPa North 2.6 km/h 5.1 km/h 96 % 0 mm
06:42 -11.8 °C -12.2 °C 34554.1 hPa Calm   5.1 km/h 96 % 0 mm
06:47 -11.8 °C -12.1 °C 34554.1 hPa Calm   2.6 km/h 96 % 0 mm
06:52 -11.7 °C -12.1 °C 34554.1 hPa Calm   2.6 km/h 96 % 0 mm
06:57 -11.7 °C -12.1 °C 34554.1 hPa Calm   2.6 km/h 96 % 0 mm
07:02 -11.8 °C -12.1 °C 34554.1 hPa Calm   2.6 km/h 96 % 0 mm
07:12 -11.7 °C -12.1 °C 34567.7 hPa Calm     96 % 0 mm
07:17 -11.7 °C -12 °C 34567.7 hPa Calm     96 % 0 mm
07:22 -11.6 °C -11.9 °C 34567.7 hPa Calm     96 % 0 mm
07:32 -11.7 °C -12.1 °C 34554.1 hPa Calm     96 % 0 mm
07:37 -11.7 °C -12.1 °C 34567.7 hPa Calm     96 % 0 mm
07:42 -11.7 °C -12 °C 34567.7 hPa Calm     96 % 0 mm
07:52 -11.7 °C -12 °C 34567.7 hPa Calm     96 % 0 mm
08:02 -11.6 °C -11.9 °C 34567.7 hPa Calm     96 % 0 mm
08:12 -11.6 °C -11.9 °C 34567.7 hPa Calm     96 % 0 mm
08:17 -11.7 °C -12 °C 34567.7 hPa Calm     96 % 0 mm
08:22 -11.6 °C -11.8 °C 34567.7 hPa Calm     97 % 0 mm
08:32 -11.5 °C -11.8 °C 34567.7 hPa Calm     96 % 0 mm
08:42 -11.5 °C -11.8 °C 34577.8 hPa Calm     96 % 0 mm
08:52 -11.6 °C -11.9 °C 34577.8 hPa Calm     96 % 0 mm
09:12 -11.7 °C -12 °C 34591.4 hPa Calm   7.7 km/h 96 % 0 mm
09:17 -11.7 °C -12 °C 34591.4 hPa Calm     96 % 0 mm
09:22 -11.6 °C -11.9 °C 34591.4 hPa Calm     96 % 0 mm
09:32 -11.6 °C -11.9 °C 34591.4 hPa Calm     96 % 7.62 mm
09:42 -11.5 °C -11.8 °C 34601.5 hPa Calm     96 % 7.62 mm
09:52 -11.3 °C -11.7 °C 34601.5 hPa Calm     96 % 7.62 mm
09:57 -11.3 °C -11.6 °C 34601.5 hPa Calm     96 % 7.62 mm
10:02 -11.2 °C -11.6 °C 34591.4 hPa Calm     96 % 7.62 mm
10:12 -11.2 °C -11.5 °C 34601.5 hPa NNW 2.6 km/h   96 % 7.62 mm
10:17 -11.2 °C -11.5 °C 34601.5 hPa Calm   2.6 km/h 96 % 7.62 mm
10:22 -11.1 °C -11.3 °C 34601.5 hPa Calm   2.6 km/h 97 % 7.62 mm
10:32 -11 °C -11.3 °C 34601.5 hPa Calm   2.6 km/h 96 % 0 mm
10:42 -10.9 °C -11.2 °C 34601.5 hPa Calm     96 % 0 mm
10:52 -10.7 °C -11 °C 34611.7 hPa Calm     97 % 0 mm
11:02 -10.7 °C -11 °C 34611.7 hPa Calm     96 % 0 mm
11:12 -10.6 °C -10.9 °C 34611.7 hPa Calm     96 % 0 mm
11:17 -10.5 °C -10.8 °C 34611.7 hPa Calm     97 % 7.62 mm
11:22 -10.5 °C -10.8 °C 34611.7 hPa Calm   10.3 km/h 96 % 71.12 mm
11:32 -10.5 °C -10.8 °C 34611.7 hPa SSE 2.6 km/h 15.6 km/h 96 % 147.32 mm
11:42 -10.4 °C -10.8 °C 34611.7 hPa South 2.6 km/h 15.6 km/h 96 % 213.36 mm
11:47 -10.4 °C -10.8 °C 34611.7 hPa SSW 2.6 km/h 7.7 km/h 96 % 218.44 mm
11:52 -10.4 °C -10.8 °C 34625.2 hPa SSW 5.1 km/h 7.7 km/h 96 % 218.44 mm
12:02 -10.3 °C -10.6 °C 34625.2 hPa SSW 5.1 km/h 7.7 km/h 97 % 226.06 mm
12:07 -10.3 °C -10.6 °C 34625.2 hPa SSW 12.9 km/h 18.2 km/h 97 % 226.06 mm
12:12 -10.3 °C -10.6 °C 34625.2 hPa WSW 10.3 km/h 20.8 km/h 97 % 226.06 mm
12:17 -10.3 °C -10.7 °C 34625.2 hPa SW 7.7 km/h 20.8 km/h 96 % 226.06 mm
12:22 -10.3 °C -10.7 °C 34625.2 hPa SSW 12.9 km/h 20.8 km/h 96 % 160.02 mm
12:32 -10.3 °C -10.7 °C 34625.2 hPa SW 7.7 km/h 23.3 km/h 96 % 83.82 mm
12:42 -10.2 °C -10.6 °C 34625.2 hPa SW 12.9 km/h 23.3 km/h 96 % 20.32 mm
12:52 -10.2 °C -10.5 °C 34625.2 hPa West 2.6 km/h 18.2 km/h 96 % 20.32 mm
12:57 -10.1 °C -10.4 °C 34625.2 hPa WSW 5.1 km/h 18.2 km/h 96 % 12.7 mm
13:02 -10 °C -10.3 °C 34611.7 hPa Calm   12.9 km/h 96 % 12.7 mm
13:07 -10 °C -10.4 °C 34611.7 hPa SSW 5.1 km/h 12.9 km/h 95 % 12.7 mm
13:12 -10 °C -10.4 °C 34611.7 hPa SW 5.1 km/h 12.9 km/h 95 % 12.7 mm
13:17 -10.1 °C -10.5 °C 34611.7 hPa SW 7.7 km/h 12.9 km/h 95 % 7.62 mm
13:27 -10 °C -10.4 °C 34611.7 hPa Calm   15.6 km/h 95 % 7.62 mm
13:32 -9.9 °C -10.4 °C 34611.7 hPa WSW 2.6 km/h 15.6 km/h 95 % 7.62 mm
13:37 -9.9 °C -10.4 °C 34611.7 hPa SSW 5.1 km/h 10.3 km/h 95 % 7.62 mm
13:42 -9.9 °C -10.4 °C 34611.7 hPa SW 2.6 km/h 10.3 km/h 95 % 7.62 mm
13:52 -9.9 °C -10.3 °C 34611.7 hPa Calm   7.7 km/h 95 % 0 mm
13:57 -9.9 °C -10.3 °C 34611.7 hPa Calm   5.1 km/h 95 % 0 mm
14:02 -9.9 °C -10.3 °C 34611.7 hPa Calm   5.1 km/h 95 % 0 mm
14:12 -9.8 °C -10.4 °C 34611.7 hPa SW 2.6 km/h 7.7 km/h 94 % 0 mm
14:17 -9.8 °C -10.3 °C 34611.7 hPa WSW 7.7 km/h 7.7 km/h 94 % 0 mm
14:22 -9.8 °C -10.3 °C 34611.7 hPa WNW 5.1 km/h 12.9 km/h 94 % 0 mm
14:32 -9.7 °C -10.2 °C 34611.7 hPa SW 2.6 km/h 12.9 km/h 94 % 0 mm
14:37 -9.7 °C -10.3 °C 34611.7 hPa WNW 10.3 km/h 12.9 km/h 93 % 0 mm
14:42 -9.7 °C -10.4 °C 34611.7 hPa West 7.7 km/h 18.2 km/h 92 % 0 mm
14:47 -9.7 °C -10.5 °C 34611.7 hPa WSW 5.1 km/h 20.8 km/h 91 % 0 mm
14:57 -9.7 °C -10.6 °C 34611.7 hPa WSW 10.3 km/h 20.8 km/h 91 % 0 mm
15:02 -9.7 °C -10.6 °C 34611.7 hPa WSW 10.3 km/h 18.2 km/h 91 % 0 mm
15:07 -9.7 °C -10.5 °C 34611.7 hPa SW 5.1 km/h 20.8 km/h 91 % 0 mm
15:12 -9.7 °C -10.5 °C 34611.7 hPa West 7.7 km/h 20.8 km/h 91 % 0 mm
15:17 -9.7 °C -10.6 °C 34611.7 hPa WSW 7.7 km/h 15.6 km/h 90 % 0 mm
15:22 -9.6 °C -10.4 °C 34611.7 hPa Calm   15.6 km/h 91 % 0 mm
15:27 -9.6 °C -10.4 °C 34611.7 hPa SW 7.7 km/h 15.6 km/h 91 % 0 mm
15:32 -9.6 °C -10.4 °C 34611.7 hPa SSW 2.6 km/h 10.3 km/h 91 % 0 mm
15:37 -9.7 °C -10.5 °C 34611.7 hPa West 5.1 km/h 12.9 km/h 91 % 0 mm
15:42 -9.7 °C -10.5 °C 34611.7 hPa West 5.1 km/h 12.9 km/h 91 % 0 mm
15:47 -9.6 °C -10.4 °C 34611.7 hPa West 5.1 km/h 12.9 km/h 91 % 0 mm
15:52 -9.6 °C -10.4 °C 34611.7 hPa WSW 7.7 km/h 10.3 km/h 91 % 0 mm
15:57 -9.7 °C -10.6 °C 34611.7 hPa SW 10.3 km/h 12.9 km/h 90 % 0 mm
16:02 -9.6 °C -10.5 °C 34611.7 hPa SW 10.3 km/h 12.9 km/h 90 % 0 mm
16:17 -9.6 °C -10.4 °C 34611.7 hPa SW 10.3 km/h 18.2 km/h 90 % 0 mm
16:22 -9.6 °C -10.6 °C 34611.7 hPa WSW 7.7 km/h 12.9 km/h 89 % 0 mm
16:27 -9.5 °C -10.5 °C 34601.5 hPa SW 5.1 km/h 12.9 km/h 89 % 0 mm
16:32 -9.4 °C -10.4 °C 34601.5 hPa West 5.1 km/h 12.9 km/h 89 % 0 mm
16:37 -9.3 °C -10.3 °C 34601.5 hPa Calm   10.3 km/h 89 % 0 mm
16:42 -9.1 °C -10.2 °C 34601.5 hPa WSW 5.1 km/h 7.7 km/h 88 % 0 mm
16:47 -9.1 °C -10.4 °C 34601.5 hPa West 7.7 km/h 10.3 km/h 85 % 0 mm
16:52 -9.1 °C -10.3 °C 34601.5 hPa West 2.6 km/h 10.3 km/h 86 % 0 mm
16:57 -8.9 °C -10.3 °C 34601.5 hPa Calm   10.3 km/h 85 % 0 mm
17:02 -8.9 °C -10.4 °C 34601.5 hPa WSW 5.1 km/h 10.3 km/h 84 % 0 mm
17:07 -9 °C -10.5 °C 34601.5 hPa WSW 2.6 km/h 10.3 km/h 84 % 0 mm
17:12 -9 °C -10.4 °C 34601.5 hPa SW 7.7 km/h 10.3 km/h 85 % 0 mm
17:17 -9.1 °C -10.4 °C 34601.5 hPa SW 2.6 km/h 7.7 km/h 85 % 0 mm
17:22 -9.1 °C -10.5 °C 34601.5 hPa SW 7.7 km/h 7.7 km/h 85 % 0 mm
17:27 -9.2 °C -10.7 °C 34601.5 hPa Calm   10.3 km/h 84 % 0 mm
17:32 -9.3 °C -10.9 °C 34601.5 hPa WSW 5.1 km/h 10.3 km/h 83 % 0 mm
17:37 -9.3 °C -10.8 °C 34611.7 hPa Calm   10.3 km/h 84 % 0 mm
17:42 -9.3 °C -10.7 °C 34601.5 hPa WSW 2.6 km/h 10.3 km/h 85 % 0 mm
17:47 -9.4 °C -10.8 °C 34611.7 hPa SW 7.7 km/h 10.3 km/h 85 % 0 mm
17:52 -9.4 °C -10.8 °C 34611.7 hPa Calm   7.7 km/h 85 % 0 mm
17:57 -9.4 °C -10.7 °C 34611.7 hPa WSW 5.1 km/h 7.7 km/h 86 % 0 mm
18:02 -9.4 °C -10.8 °C 34611.7 hPa WSW 2.6 km/h 7.7 km/h 85 % 0 mm
18:07 -9.3 °C -10.7 °C 34611.7 hPa WSW 2.6 km/h 7.7 km/h 85 % 0 mm
18:12 -9.1 °C -10.5 °C 34611.7 hPa Calm   7.7 km/h 85 % 0 mm
18:27 -9.2 °C -10.7 °C 34611.7 hPa Calm   5.1 km/h 84 % 0 mm
18:32 -9.3 °C -10.7 °C 34611.7 hPa SW 5.1 km/h 5.1 km/h 85 % 0 mm
18:42 -9.3 °C -10.7 °C 34611.7 hPa WSW 7.7 km/h 7.7 km/h 85 % 0 mm
18:52 -9.4 °C -10.7 °C 34625.2 hPa WSW 7.7 km/h 10.3 km/h 86 % 0 mm
18:57 -9.5 °C -10.8 °C 34611.7 hPa WSW 2.6 km/h 10.3 km/h 86 % 0 mm
19:02 -9.6 °C -10.8 °C 34625.2 hPa SSW 2.6 km/h 10.3 km/h 86 % 0 mm
19:07 -9.6 °C -10.9 °C 34625.2 hPa SW 2.6 km/h 7.7 km/h 86 % 0 mm
19:12 -9.7 °C -10.9 °C 34625.2 hPa Calm   5.1 km/h 87 % 0 mm
19:17 -9.9 °C -11 °C 34625.2 hPa SSW 2.6 km/h 5.1 km/h 88 % 0 mm
19:27 -10.2 °C -10.9 °C 34625.2 hPa SSW 5.1 km/h 5.1 km/h 91 % 0 mm
19:32 -10.3 °C -11 °C 34625.2 hPa SSW 2.6 km/h 5.1 km/h 92 % 0 mm
19:37 -10.3 °C -11.1 °C 34635.4 hPa Calm   5.1 km/h 92 % 0 mm
19:42 -10.5 °C -11.2 °C 34635.4 hPa WNW 5.1 km/h 5.1 km/h 92 % 0 mm
19:47 -10.7 °C -11.3 °C 34635.4 hPa WNW 2.6 km/h 5.1 km/h 93 % 0 mm
19:52 -10.7 °C -11.2 °C 34635.4 hPa Calm   5.1 km/h 94 % 0 mm
19:57 -10.7 °C -11.2 °C 34635.4 hPa Calm   5.1 km/h 94 % 0 mm
20:02 -10.7 °C -11.1 °C 34635.4 hPa Calm   5.1 km/h 95 % 0 mm
20:07 -10.7 °C -11.2 °C 34645.6 hPa Calm   2.6 km/h 94 % 0 mm
20:12 -10.7 °C -11.2 °C 34645.6 hPa WNW 2.6 km/h 2.6 km/h 95 % 0 mm
20:17 -10.8 °C -11.3 °C 34645.6 hPa Calm   2.6 km/h 94 % 0 mm
20:22 -10.9 °C -11.3 °C 34645.6 hPa Calm   2.6 km/h 95 % 0 mm
20:32 -10.9 °C -11.4 °C 34645.6 hPa Calm   2.6 km/h 95 % 0 mm
20:37 -11 °C -11.4 °C 34645.6 hPa Calm     95 % 0 mm
20:42 -10.9 °C -11.3 °C 34645.6 hPa Calm     96 % 0 mm
20:47 -10.9 °C -11.2 °C 34645.6 hPa Calm   2.6 km/h 96 % 0 mm
20:52 -11.1 °C -11.5 °C 34645.6 hPa Calm   2.6 km/h 95 % 0 mm
20:57 -11.2 °C -11.6 °C 34645.6 hPa Calm   5.1 km/h 95 % 0 mm
21:02 -11.1 °C -11.4 °C 34645.6 hPa Calm   5.1 km/h 96 % 0 mm
21:12 -11.1 °C -11.4 °C 34645.6 hPa Calm   5.1 km/h 96 % 0 mm
21:17 -11.1 °C -11.6 °C 34645.6 hPa Calm   2.6 km/h 95 % 12.7 mm
21:22 -11.1 °C -11.6 °C 34645.6 hPa Calm   5.1 km/h 95 % 12.7 mm
21:27 -11.1 °C -11.6 °C 34645.6 hPa Calm   5.1 km/h 95 % 12.7 mm
21:32 -11.2 °C -11.6 °C 34659.1 hPa SE 2.6 km/h 5.1 km/h 95 % 12.7 mm
21:37 -11.2 °C -11.6 °C 34659.1 hPa South 2.6 km/h 2.6 km/h 95 % 12.7 mm
21:42 -11.2 °C -11.7 °C 34659.1 hPa SW 2.6 km/h 5.1 km/h 94 % 12.7 mm
21:47 -11.3 °C -11.8 °C 34659.1 hPa SW 5.1 km/h 7.7 km/h 94 % 12.7 mm
21:52 -11.3 °C -11.8 °C 34659.1 hPa SSW 2.6 km/h 7.7 km/h 94 % 12.7 mm
21:57 -11.3 °C -11.9 °C 34659.1 hPa Calm   7.7 km/h 93 % 12.7 mm
22:02 -11.3 °C -11.9 °C 34659.1 hPa Calm   7.7 km/h 93 % 12.7 mm
22:12 -11.5 °C -12.1 °C 34659.1 hPa Calm     93 % 7.62 mm
22:17 -11.5 °C -12 °C 34659.1 hPa Calm     94 % 0 mm
22:22 -11.6 °C -12.1 °C 34659.1 hPa Calm     94 % 0 mm
22:27 -11.6 °C -12.1 °C 34659.1 hPa Calm     94 % 0 mm
22:37 -11.6 °C -12.1 °C 34659.1 hPa NW 2.6 km/h 2.6 km/h 94 % 0 mm
22:42 -11.6 °C -12.1 °C 34669.3 hPa Calm   2.6 km/h 95 % 0 mm
22:52 -11.8 °C -12.3 °C 34669.3 hPa Calm   2.6 km/h 94 % 0 mm
22:57 -11.8 °C -12.2 °C 34669.3 hPa Calm     95 % 0 mm
23:02 -11.8 °C -12.2 °C 34669.3 hPa Calm     95 % 0 mm
23:07 -11.8 °C -12.3 °C 34669.3 hPa Calm     95 % 0 mm
23:22 -12 °C -12.4 °C 34669.3 hPa Calm     95 % 0 mm
23:27 -12.1 °C -12.6 °C 34669.3 hPa Calm   2.6 km/h 95 % 0 mm
23:32 -12.2 °C -12.7 °C 34669.3 hPa Calm   2.6 km/h 95 % 0 mm
23:37 -12.1 °C -12.4 °C 34669.3 hPa Calm   2.6 km/h 96 % 0 mm
23:42 -12 °C -12.3 °C 34669.3 hPa Calm     97 % 0 mm
23:47 -11.9 °C -12.2 °C 34669.3 hPa Calm     97 % 0 mm
23:52 -11.9 °C -12.2 °C 34669.3 hPa Calm     97 % 0 mm
23:57 -11.9 °C -12.2 °C 34669.3 hPa Calm     96 % 0 mm
Meteo18
Compliments of Weather Underground - 4 mb

Script developed by  Jim McMurry - jmcmurry@mwt.net Adapted for the template by  Wim van der Kuil - Leuven-Template.eu

You find our weather info also at:

European Weather Network

Weather Underground

Equipment we use:

Weather-station
Davis Vue

Weather-program
Meteobridge

Weather-server
Raspberry PI 2 B+

Provider
1 and 1

Davis Vue

Meteobridge

Raspberry PI 2 B+

1 and 1